sensor_id;sensor_type;location;lat;lon;timestamp;P1;durP1;ratioP1;P2;durP2;ratioP2
20711;SDS011;10517;50.742;4.224;2022-10-16T00:00:56;2.65;;;0.57;;
20711;SDS011;10517;50.742;4.224;2022-10-16T00:03:22;0.52;;;0.43;;
20711;SDS011;10517;50.742;4.224;2022-10-16T00:05:47;1.88;;;1.27;;
20711;SDS011;10517;50.742;4.224;2022-10-16T00:08:13;2.58;;;0.82;;
20711;SDS011;10517;50.742;4.224;2022-10-16T00:10:39;1.23;;;0.95;;
20711;SDS011;10517;50.742;4.224;2022-10-16T00:13:05;0.98;;;0.98;;
20711;SDS011;10517;50.742;4.224;2022-10-16T00:15:38;1.33;;;0.52;;
20711;SDS011;10517;50.742;4.224;2022-10-16T00:18:04;0.60;;;0.60;;
20711;SDS011;10517;50.742;4.224;2022-10-16T00:20:30;0.50;;;0.50;;
20711;SDS011;10517;50.742;4.224;2022-10-16T00:22:59;3.35;;;0.70;;
20711;SDS011;10517;50.742;4.224;2022-10-16T00:25:24;0.95;;;0.80;;
20711;SDS011;10517;50.742;4.224;2022-10-16T00:27:50;0.60;;;0.60;;
20711;SDS011;10517;50.742;4.224;2022-10-16T00:30:15;2.33;;;0.80;;
20711;SDS011;10517;50.742;4.224;2022-10-16T00:32:41;0.57;;;0.57;;
20711;SDS011;10517;50.742;4.224;2022-10-16T00:35:06;1.65;;;0.60;;
20711;SDS011;10517;50.742;4.224;2022-10-16T00:37:32;4.25;;;0.55;;
20711;SDS011;10517;50.742;4.224;2022-10-16T00:39:58;1.42;;;0.68;;
20711;SDS011;10517;50.742;4.224;2022-10-16T00:42:23;0.77;;;0.65;;
20711;SDS011;10517;50.742;4.224;2022-10-16T00:44:50;0.55;;;0.55;;
20711;SDS011;10517;50.742;4.224;2022-10-16T00:47:19;1.88;;;0.82;;
20711;SDS011;10517;50.742;4.224;2022-10-16T00:49:47;1.15;;;0.60;;
20711;SDS011;10517;50.742;4.224;2022-10-16T00:52:16;1.33;;;0.82;;
20711;SDS011;10517;50.742;4.224;2022-10-16T00:54:43;1.00;;;0.77;;
20711;SDS011;10517;50.742;4.224;2022-10-16T00:57:09;3.22;;;0.70;;
20711;SDS011;10517;50.742;4.224;2022-10-16T00:59:36;2.35;;;0.65;;
20711;SDS011;10517;50.742;4.224;2022-10-16T01:02:05;0.93;;;0.80;;
20711;SDS011;10517;50.742;4.224;2022-10-16T01:04:40;1.00;;;0.90;;
20711;SDS011;10517;50.742;4.224;2022-10-16T01:07:20;1.00;;;0.55;;
20711;SDS011;10517;50.742;4.224;2022-10-16T01:13:13;0.90;;;0.73;;
20711;SDS011;10517;50.742;4.224;2022-10-16T01:15:51;1.15;;;0.80;;
20711;SDS011;10517;50.742;4.224;2022-10-16T01:20:58;0.70;;;0.70;;
20711;SDS011;10517;50.742;4.224;2022-10-16T01:23:33;1.17;;;0.80;;
20711;SDS011;10517;50.742;4.224;2022-10-16T01:26:24;0.80;;;0.80;;
20711;SDS011;10517;50.742;4.224;2022-10-16T01:29:09;1.00;;;0.90;;
20711;SDS011;10517;50.742;4.224;2022-10-16T01:31:47;0.60;;;0.57;;
20711;SDS011;10517;50.742;4.224;2022-10-16T01:34:20;5.75;;;1.15;;
20711;SDS011;10517;50.742;4.224;2022-10-16T01:36:56;1.35;;;0.80;;
20711;SDS011;10517;50.742;4.224;2022-10-16T01:39:28;1.00;;;0.80;;
20711;SDS011;10517;50.742;4.224;2022-10-16T01:44:47;3.72;;;1.05;;
20711;SDS011;10517;50.742;4.224;2022-10-16T01:47:14;0.80;;;0.77;;
20711;SDS011;10517;50.742;4.224;2022-10-16T01:49:42;0.90;;;0.90;;
20711;SDS011;10517;50.742;4.224;2022-10-16T01:52:11;1.00;;;0.90;;
20711;SDS011;10517;50.742;4.224;2022-10-16T01:54:41;2.70;;;0.90;;
20711;SDS011;10517;50.742;4.224;2022-10-16T01:57:10;5.40;;;1.23;;
20711;SDS011;10517;50.742;4.224;2022-10-16T01:59:40;2.05;;;0.98;;
20711;SDS011;10517;50.742;4.224;2022-10-16T02:02:09;1.48;;;0.70;;
20711;SDS011;10517;50.742;4.224;2022-10-16T02:04:42;1.38;;;0.90;;
20711;SDS011;10517;50.742;4.224;2022-10-16T02:07:12;1.10;;;1.00;;
20711;SDS011;10517;50.742;4.224;2022-10-16T02:09:39;1.77;;;1.00;;
20711;SDS011;10517;50.742;4.224;2022-10-16T02:12:15;1.40;;;1.00;;
20711;SDS011;10517;50.742;4.224;2022-10-16T02:14:50;1.30;;;0.80;;
20711;SDS011;10517;50.742;4.224;2022-10-16T02:17:16;2.33;;;0.90;;
20711;SDS011;10517;50.742;4.224;2022-10-16T02:19:42;1.00;;;0.90;;
20711;SDS011;10517;50.742;4.224;2022-10-16T02:22:12;2.60;;;1.10;;
20711;SDS011;10517;50.742;4.224;2022-10-16T02:24:44;2.17;;;1.02;;
20711;SDS011;10517;50.742;4.224;2022-10-16T02:32:55;4.45;;;1.25;;
20711;SDS011;10517;50.742;4.224;2022-10-16T02:35:21;1.27;;;1.13;;
20711;SDS011;10517;50.742;4.224;2022-10-16T02:37:49;1.13;;;0.80;;
20711;SDS011;10517;50.742;4.224;2022-10-16T02:40:17;1.67;;;1.20;;
20711;SDS011;10517;50.742;4.224;2022-10-16T02:42:43;1.13;;;1.00;;
20711;SDS011;10517;50.742;4.224;2022-10-16T02:45:09;1.65;;;1.00;;
20711;SDS011;10517;50.742;4.224;2022-10-16T02:47:36;1.42;;;1.33;;
20711;SDS011;10517;50.742;4.224;2022-10-16T02:50:02;9.20;;;1.30;;
20711;SDS011;10517;50.742;4.224;2022-10-16T02:52:28;1.77;;;1.25;;
20711;SDS011;10517;50.742;4.224;2022-10-16T02:54:53;1.20;;;1.10;;
20711;SDS011;10517;50.742;4.224;2022-10-16T02:57:19;3.15;;;1.73;;
20711;SDS011;10517;50.742;4.224;2022-10-16T02:59:44;2.67;;;1.25;;
20711;SDS011;10517;50.742;4.224;2022-10-16T03:02:10;3.22;;;1.13;;
20711;SDS011;10517;50.742;4.224;2022-10-16T03:04:36;4.03;;;1.38;;
20711;SDS011;10517;50.742;4.224;2022-10-16T03:07:02;2.03;;;1.27;;
20711;SDS011;10517;50.742;4.224;2022-10-16T03:09:28;1.17;;;1.08;;
20711;SDS011;10517;50.742;4.224;2022-10-16T03:11:54;1.92;;;1.40;;
20711;SDS011;10517;50.742;4.224;2022-10-16T03:14:20;1.00;;;0.82;;
20711;SDS011;10517;50.742;4.224;2022-10-16T03:16:45;2.03;;;1.30;;
20711;SDS011;10517;50.742;4.224;2022-10-16T03:19:11;1.42;;;1.10;;
20711;SDS011;10517;50.742;4.224;2022-10-16T03:21:36;2.55;;;1.60;;
20711;SDS011;10517;50.742;4.224;2022-10-16T03:24:02;5.15;;;1.77;;
20711;SDS011;10517;50.742;4.224;2022-10-16T03:26:28;1.85;;;1.10;;
20711;SDS011;10517;50.742;4.224;2022-10-16T03:28:53;2.85;;;1.27;;
20711;SDS011;10517;50.742;4.224;2022-10-16T03:31:19;2.55;;;1.40;;
20711;SDS011;10517;50.742;4.224;2022-10-16T03:33:45;1.95;;;1.25;;
20711;SDS011;10517;50.742;4.224;2022-10-16T03:36:10;1.27;;;1.10;;
20711;SDS011;10517;50.742;4.224;2022-10-16T03:38:36;5.85;;;1.30;;
20711;SDS011;10517;50.742;4.224;2022-10-16T03:41:01;3.10;;;1.42;;
20711;SDS011;10517;50.742;4.224;2022-10-16T03:43:27;5.63;;;1.27;;
20711;SDS011;10517;50.742;4.224;2022-10-16T03:45:53;4.90;;;1.60;;
20711;SDS011;10517;50.742;4.224;2022-10-16T03:48:19;1.65;;;1.20;;
20711;SDS011;10517;50.742;4.224;2022-10-16T03:50:44;2.15;;;1.10;;
20711;SDS011;10517;50.742;4.224;2022-10-16T03:53:13;2.30;;;1.52;;
20711;SDS011;10517;50.742;4.224;2022-10-16T03:55:40;2.92;;;1.23;;
20711;SDS011;10517;50.742;4.224;2022-10-16T03:58:07;1.20;;;1.10;;
20711;SDS011;10517;50.742;4.224;2022-10-16T04:00:32;3.15;;;1.40;;
20711;SDS011;10517;50.742;4.224;2022-10-16T04:02:59;2.25;;;1.20;;
20711;SDS011;10517;50.742;4.224;2022-10-16T04:05:25;2.92;;;1.60;;
20711;SDS011;10517;50.742;4.224;2022-10-16T04:07:50;1.90;;;1.40;;
20711;SDS011;10517;50.742;4.224;2022-10-16T04:10:16;1.73;;;1.15;;
20711;SDS011;10517;50.742;4.224;2022-10-16T04:12:42;2.38;;;1.48;;
20711;SDS011;10517;50.742;4.224;2022-10-16T04:15:07;1.52;;;1.10;;
20711;SDS011;10517;50.742;4.224;2022-10-16T04:17:33;2.80;;;1.27;;
20711;SDS011;10517;50.742;4.224;2022-10-16T04:19:59;1.02;;;0.90;;
20711;SDS011;10517;50.742;4.224;2022-10-16T04:22:24;2.25;;;1.40;;
20711;SDS011;10517;50.742;4.224;2022-10-16T04:24:50;4.05;;;1.77;;
20711;SDS011;10517;50.742;4.224;2022-10-16T04:27:15;1.50;;;0.80;;
20711;SDS011;10517;50.742;4.224;2022-10-16T04:29:41;1.35;;;1.00;;
20711;SDS011;10517;50.742;4.224;2022-10-16T04:32:07;1.20;;;1.00;;
20711;SDS011;10517;50.742;4.224;2022-10-16T04:34:34;4.13;;;1.27;;
20711;SDS011;10517;50.742;4.224;2022-10-16T04:36:59;1.38;;;1.10;;
20711;SDS011;10517;50.742;4.224;2022-10-16T04:39:25;3.75;;;1.40;;
20711;SDS011;10517;50.742;4.224;2022-10-16T04:41:51;2.15;;;1.60;;
20711;SDS011;10517;50.742;4.224;2022-10-16T04:44:16;2.25;;;1.60;;
20711;SDS011;10517;50.742;4.224;2022-10-16T04:46:42;8.20;;;1.20;;
20711;SDS011;10517;50.742;4.224;2022-10-16T04:49:09;2.30;;;1.23;;
20711;SDS011;10517;50.742;4.224;2022-10-16T04:51:34;4.32;;;1.40;;
20711;SDS011;10517;50.742;4.224;2022-10-16T04:54:00;2.42;;;1.60;;
20711;SDS011;10517;50.742;4.224;2022-10-16T04:56:26;1.42;;;1.30;;
20711;SDS011;10517;50.742;4.224;2022-10-16T04:58:52;2.83;;;1.35;;
20711;SDS011;10517;50.742;4.224;2022-10-16T05:01:17;2.95;;;1.40;;
20711;SDS011;10517;50.742;4.224;2022-10-16T05:03:43;3.13;;;1.48;;
20711;SDS011;10517;50.742;4.224;2022-10-16T05:06:08;1.25;;;1.15;;
20711;SDS011;10517;50.742;4.224;2022-10-16T05:08:34;6.65;;;1.40;;
20711;SDS011;10517;50.742;4.224;2022-10-16T05:11:00;3.53;;;1.17;;
20711;SDS011;10517;50.742;4.224;2022-10-16T05:13:26;3.67;;;1.67;;
20711;SDS011;10517;50.742;4.224;2022-10-16T05:15:52;2.83;;;1.63;;
20711;SDS011;10517;50.742;4.224;2022-10-16T05:18:17;6.50;;;1.75;;
20711;SDS011;10517;50.742;4.224;2022-10-16T05:20:43;1.88;;;1.23;;
20711;SDS011;10517;50.742;4.224;2022-10-16T05:23:08;1.85;;;1.50;;
20711;SDS011;10517;50.742;4.224;2022-10-16T05:25:37;5.88;;;1.27;;
20711;SDS011;10517;50.742;4.224;2022-10-16T05:28:03;2.55;;;1.40;;
20711;SDS011;10517;50.742;4.224;2022-10-16T05:30:29;3.80;;;1.60;;
20711;SDS011;10517;50.742;4.224;2022-10-16T05:32:54;8.38;;;1.70;;
20711;SDS011;10517;50.742;4.224;2022-10-16T05:35:20;3.85;;;2.05;;
20711;SDS011;10517;50.742;4.224;2022-10-16T05:37:46;4.78;;;1.77;;
20711;SDS011;10517;50.742;4.224;2022-10-16T05:40:12;1.65;;;1.17;;
20711;SDS011;10517;50.742;4.224;2022-10-16T05:42:38;1.65;;;1.50;;
20711;SDS011;10517;50.742;4.224;2022-10-16T05:45:05;4.03;;;1.73;;
20711;SDS011;10517;50.742;4.224;2022-10-16T05:47:32;2.15;;;1.50;;
20711;SDS011;10517;50.742;4.224;2022-10-16T05:49:57;3.20;;;2.10;;
20711;SDS011;10517;50.742;4.224;2022-10-16T05:52:23;2.15;;;1.25;;
20711;SDS011;10517;50.742;4.224;2022-10-16T05:54:48;1.67;;;1.50;;
20711;SDS011;10517;50.742;4.224;2022-10-16T05:57:14;2.45;;;1.63;;
20711;SDS011;10517;50.742;4.224;2022-10-16T05:59:40;2.03;;;1.48;;
20711;SDS011;10517;50.742;4.224;2022-10-16T06:02:05;3.72;;;1.65;;
20711;SDS011;10517;50.742;4.224;2022-10-16T06:04:33;1.70;;;1.60;;
20711;SDS011;10517;50.742;4.224;2022-10-16T06:06:59;1.40;;;1.23;;
20711;SDS011;10517;50.742;4.224;2022-10-16T06:09:25;8.52;;;1.73;;
20711;SDS011;10517;50.742;4.224;2022-10-16T06:11:51;3.33;;;1.60;;
20711;SDS011;10517;50.742;4.224;2022-10-16T06:14:16;2.78;;;1.50;;
20711;SDS011;10517;50.742;4.224;2022-10-16T06:16:42;2.95;;;1.92;;
20711;SDS011;10517;50.742;4.224;2022-10-16T06:19:08;1.90;;;1.58;;
20711;SDS011;10517;50.742;4.224;2022-10-16T06:21:34;2.55;;;1.42;;
20711;SDS011;10517;50.742;4.224;2022-10-16T06:24:00;1.98;;;1.45;;
20711;SDS011;10517;50.742;4.224;2022-10-16T06:26:26;6.90;;;1.80;;
20711;SDS011;10517;50.742;4.224;2022-10-16T06:28:54;5.55;;;1.45;;
20711;SDS011;10517;50.742;4.224;2022-10-16T06:31:20;4.63;;;1.90;;
20711;SDS011;10517;50.742;4.224;2022-10-16T06:33:49;2.58;;;1.33;;
20711;SDS011;10517;50.742;4.224;2022-10-16T06:36:16;1.63;;;1.23;;
20711;SDS011;10517;50.742;4.224;2022-10-16T06:38:43;3.15;;;1.52;;
20711;SDS011;10517;50.742;4.224;2022-10-16T06:41:09;4.78;;;1.63;;
20711;SDS011;10517;50.742;4.224;2022-10-16T06:43:37;2.45;;;1.58;;
20711;SDS011;10517;50.742;4.224;2022-10-16T06:46:04;1.75;;;1.58;;
20711;SDS011;10517;50.742;4.224;2022-10-16T06:48:31;3.30;;;1.40;;
20711;SDS011;10517;50.742;4.224;2022-10-16T06:53:27;4.68;;;1.60;;
20711;SDS011;10517;50.742;4.224;2022-10-16T06:55:55;1.60;;;1.23;;
20711;SDS011;10517;50.742;4.224;2022-10-16T06:58:21;4.28;;;1.67;;
20711;SDS011;10517;50.742;4.224;2022-10-16T07:00:47;2.28;;;1.70;;
20711;SDS011;10517;50.742;4.224;2022-10-16T07:03:13;1.70;;;1.60;;
20711;SDS011;10517;50.742;4.224;2022-10-16T07:05:39;1.60;;;1.20;;
20711;SDS011;10517;50.742;4.224;2022-10-16T07:08:06;1.90;;;1.45;;
20711;SDS011;10517;50.742;4.224;2022-10-16T07:10:32;1.90;;;1.50;;
20711;SDS011;10517;50.742;4.224;2022-10-16T07:12:58;2.90;;;1.38;;
20711;SDS011;10517;50.742;4.224;2022-10-16T07:15:24;2.08;;;1.40;;
20711;SDS011;10517;50.742;4.224;2022-10-16T07:17:50;2.70;;;1.30;;
20711;SDS011;10517;50.742;4.224;2022-10-16T07:20:16;2.17;;;1.60;;
20711;SDS011;10517;50.742;4.224;2022-10-16T07:22:42;1.25;;;1.10;;
20711;SDS011;10517;50.742;4.224;2022-10-16T07:25:08;2.00;;;1.35;;
20711;SDS011;10517;50.742;4.224;2022-10-16T07:27:33;1.85;;;1.30;;
20711;SDS011;10517;50.742;4.224;2022-10-16T07:29:59;1.60;;;1.50;;
20711;SDS011;10517;50.742;4.224;2022-10-16T07:32:25;1.40;;;1.20;;
20711;SDS011;10517;50.742;4.224;2022-10-16T07:34:51;1.83;;;1.42;;
20711;SDS011;10517;50.742;4.224;2022-10-16T07:37:17;5.45;;;1.38;;
20711;SDS011;10517;50.742;4.224;2022-10-16T07:39:43;3.38;;;1.58;;
20711;SDS011;10517;50.742;4.224;2022-10-16T07:42:08;6.28;;;1.55;;
20711;SDS011;10517;50.742;4.224;2022-10-16T07:44:34;1.45;;;1.20;;
20711;SDS011;10517;50.742;4.224;2022-10-16T07:46:59;2.35;;;1.63;;
20711;SDS011;10517;50.742;4.224;2022-10-16T07:49:25;4.85;;;1.83;;
20711;SDS011;10517;50.742;4.224;2022-10-16T07:51:50;3.47;;;1.48;;
20711;SDS011;10517;50.742;4.224;2022-10-16T07:54:16;4.85;;;2.17;;
20711;SDS011;10517;50.742;4.224;2022-10-16T07:56:42;2.85;;;1.55;;
20711;SDS011;10517;50.742;4.224;2022-10-16T07:59:07;1.92;;;1.38;;
20711;SDS011;10517;50.742;4.224;2022-10-16T08:01:33;3.08;;;1.38;;
20711;SDS011;10517;50.742;4.224;2022-10-16T08:03:58;3.00;;;1.27;;
20711;SDS011;10517;50.742;4.224;2022-10-16T08:06:24;3.92;;;1.20;;
20711;SDS011;10517;50.742;4.224;2022-10-16T08:08:50;4.30;;;1.08;;
20711;SDS011;10517;50.742;4.224;2022-10-16T08:11:15;2.13;;;1.48;;
20711;SDS011;10517;50.742;4.224;2022-10-16T08:13:41;7.28;;;1.17;;
20711;SDS011;10517;50.742;4.224;2022-10-16T08:16:07;1.83;;;1.08;;
20711;SDS011;10517;50.742;4.224;2022-10-16T08:18:35;3.10;;;1.40;;
20711;SDS011;10517;50.742;4.224;2022-10-16T08:21:01;5.63;;;1.23;;
20711;SDS011;10517;50.742;4.224;2022-10-16T08:23:27;1.77;;;1.40;;
20711;SDS011;10517;50.742;4.224;2022-10-16T08:25:53;1.60;;;0.85;;
20711;SDS011;10517;50.742;4.224;2022-10-16T08:28:19;2.55;;;0.95;;
20711;SDS011;10517;50.742;4.224;2022-10-16T08:30:45;2.17;;;0.98;;
20711;SDS011;10517;50.742;4.224;2022-10-16T08:33:11;2.17;;;1.17;;
20711;SDS011;10517;50.742;4.224;2022-10-16T08:35:36;6.00;;;1.55;;
20711;SDS011;10517;50.742;4.224;2022-10-16T08:38:05;4.93;;;1.00;;
20711;SDS011;10517;50.742;4.224;2022-10-16T08:40:32;1.70;;;1.20;;
20711;SDS011;10517;50.742;4.224;2022-10-16T08:45:49;1.85;;;0.73;;
20711;SDS011;10517;50.742;4.224;2022-10-16T08:48:47;1.40;;;0.90;;
20711;SDS011;10517;50.742;4.224;2022-10-16T08:51:21;0.95;;;0.80;;
20711;SDS011;10517;50.742;4.224;2022-10-16T08:54:01;2.05;;;0.65;;
20711;SDS011;10517;50.742;4.224;2022-10-16T08:56:27;1.13;;;0.60;;
20711;SDS011;10517;50.742;4.224;2022-10-16T08:58:53;2.17;;;0.93;;
20711;SDS011;10517;50.742;4.224;2022-10-16T09:01:20;5.13;;;0.73;;
20711;SDS011;10517;50.742;4.224;2022-10-16T09:23:35;2.40;;;0.90;;
20711;SDS011;10517;50.742;4.224;2022-10-16T09:26:02;4.57;;;0.65;;
20711;SDS011;10517;50.742;4.224;2022-10-16T09:28:29;2.20;;;0.95;;
20711;SDS011;10517;50.742;4.224;2022-10-16T09:30:54;3.00;;;0.70;;
20711;SDS011;10517;50.742;4.224;2022-10-16T09:33:22;1.25;;;0.70;;
20711;SDS011;10517;50.742;4.224;2022-10-16T09:35:51;4.40;;;1.05;;
20711;SDS011;10517;50.742;4.224;2022-10-16T09:38:27;2.10;;;0.60;;
20711;SDS011;10517;50.742;4.224;2022-10-16T09:40:53;5.93;;;1.55;;
20711;SDS011;10517;50.742;4.224;2022-10-16T09:43:28;1.30;;;0.65;;
20711;SDS011;10517;50.742;4.224;2022-10-16T09:46:01;1.95;;;0.88;;
20711;SDS011;10517;50.742;4.224;2022-10-16T09:48:36;2.20;;;0.70;;
20711;SDS011;10517;50.742;4.224;2022-10-16T09:51:05;1.25;;;0.82;;
20711;SDS011;10517;50.742;4.224;2022-10-16T09:53:38;1.95;;;0.65;;
20711;SDS011;10517;50.742;4.224;2022-10-16T09:56:09;4.78;;;1.00;;
20711;SDS011;10517;50.742;4.224;2022-10-16T09:58:41;3.00;;;0.68;;
20711;SDS011;10517;50.742;4.224;2022-10-16T10:01:12;1.27;;;0.70;;
20711;SDS011;10517;50.742;4.224;2022-10-16T10:03:40;1.20;;;0.80;;
20711;SDS011;10517;50.742;4.224;2022-10-16T10:06:26;5.35;;;0.95;;
20711;SDS011;10517;50.742;4.224;2022-10-16T10:08:55;2.58;;;0.70;;
20711;SDS011;10517;50.742;4.224;2022-10-16T10:11:40;1.75;;;0.68;;
20711;SDS011;10517;50.742;4.224;2022-10-16T10:14:13;6.45;;;0.98;;
20711;SDS011;10517;50.742;4.224;2022-10-16T10:16:46;1.58;;;0.80;;
20711;SDS011;10517;50.742;4.224;2022-10-16T10:19:13;1.20;;;1.10;;
20711;SDS011;10517;50.742;4.224;2022-10-16T10:21:40;0.60;;;0.50;;
20711;SDS011;10517;50.742;4.224;2022-10-16T10:24:09;2.95;;;0.70;;
20711;SDS011;10517;50.742;4.224;2022-10-16T10:26:36;8.18;;;0.63;;
20711;SDS011;10517;50.742;4.224;2022-10-16T10:29:06;0.82;;;0.60;;
20711;SDS011;10517;50.742;4.224;2022-10-16T10:31:58;2.97;;;0.75;;
20711;SDS011;10517;50.742;4.224;2022-10-16T10:37:51;4.38;;;0.80;;
20711;SDS011;10517;50.742;4.224;2022-10-16T10:40:42;4.30;;;0.80;;
20711;SDS011;10517;50.742;4.224;2022-10-16T10:46:00;1.52;;;0.73;;
20711;SDS011;10517;50.742;4.224;2022-10-16T10:54:10;1.45;;;0.70;;
20711;SDS011;10517;50.742;4.224;2022-10-16T10:56:46;2.08;;;0.77;;
20711;SDS011;10517;50.742;4.224;2022-10-16T10:59:30;3.25;;;0.63;;
20711;SDS011;10517;50.742;4.224;2022-10-16T11:02:15;2.35;;;0.70;;
20711;SDS011;10517;50.742;4.224;2022-10-16T11:07:42;4.05;;;0.80;;
20711;SDS011;10517;50.742;4.224;2022-10-16T11:12:47;2.88;;;0.60;;
20711;SDS011;10517;50.742;4.224;2022-10-16T11:23:16;2.13;;;0.63;;
20711;SDS011;10517;50.742;4.224;2022-10-16T11:26:04;3.17;;;0.60;;
20711;SDS011;10517;50.742;4.224;2022-10-16T11:28:37;1.38;;;0.80;;
20711;SDS011;10517;50.742;4.224;2022-10-16T11:33:57;0.85;;;0.60;;
20711;SDS011;10517;50.742;4.224;2022-10-16T11:36:42;4.85;;;0.70;;
20711;SDS011;10517;50.742;4.224;2022-10-16T11:39:18;1.10;;;0.65;;
20711;SDS011;10517;50.742;4.224;2022-10-16T11:41:56;1.17;;;0.65;;
20711;SDS011;10517;50.742;4.224;2022-10-16T11:50:10;0.60;;;0.60;;
20711;SDS011;10517;50.742;4.224;2022-10-16T11:53:04;2.13;;;0.70;;
20711;SDS011;10517;50.742;4.224;2022-10-16T11:55:44;0.70;;;0.70;;
20711;SDS011;10517;50.742;4.224;2022-10-16T11:58:22;1.95;;;0.63;;
20711;SDS011;10517;50.742;4.224;2022-10-16T12:00:59;4.00;;;0.85;;
20711;SDS011;10517;50.742;4.224;2022-10-16T12:06:34;1.13;;;0.63;;
20711;SDS011;10517;50.742;4.224;2022-10-16T12:09:26;0.65;;;0.65;;
20711;SDS011;10517;50.742;4.224;2022-10-16T12:11:54;2.28;;;0.73;;
20711;SDS011;10517;50.742;4.224;2022-10-16T12:16:56;0.70;;;0.70;;
20711;SDS011;10517;50.742;4.224;2022-10-16T12:19:29;5.03;;;1.20;;
20711;SDS011;10517;50.742;4.224;2022-10-16T12:21:58;1.35;;;0.77;;
20711;SDS011;10517;50.742;4.224;2022-10-16T12:24:35;1.92;;;0.82;;
20711;SDS011;10517;50.742;4.224;2022-10-16T12:27:03;0.77;;;0.70;;
20711;SDS011;10517;50.742;4.224;2022-10-16T12:29:33;2.72;;;0.73;;
20711;SDS011;10517;50.742;4.224;2022-10-16T12:32:01;3.97;;;0.90;;
20711;SDS011;10517;50.742;4.224;2022-10-16T12:34:32;1.08;;;0.90;;
20711;SDS011;10517;50.742;4.224;2022-10-16T12:37:46;1.48;;;1.00;;
20711;SDS011;10517;50.742;4.224;2022-10-16T12:39:54;1.33;;;1.05;;
20711;SDS011;10517;50.742;4.224;2022-10-16T12:44:53;0.73;;;0.60;;
20711;SDS011;10517;50.742;4.224;2022-10-16T12:47:20;3.60;;;0.80;;
20711;SDS011;10517;50.742;4.224;2022-10-16T12:49:53;0.70;;;0.70;;
20711;SDS011;10517;50.742;4.224;2022-10-16T12:52:24;3.22;;;0.80;;
20711;SDS011;10517;50.742;4.224;2022-10-16T12:54:59;2.05;;;1.13;;
20711;SDS011;10517;50.742;4.224;2022-10-16T13:12:07;1.80;;;0.73;;
20711;SDS011;10517;50.742;4.224;2022-10-16T13:15:04;1.67;;;1.17;;
20711;SDS011;10517;50.742;4.224;2022-10-16T13:20:43;1.45;;;0.90;;
20711;SDS011;10517;50.742;4.224;2022-10-16T13:28:34;2.50;;;1.00;;
20711;SDS011;10517;50.742;4.224;2022-10-16T13:31:03;5.88;;;1.35;;
20711;SDS011;10517;50.742;4.224;2022-10-16T13:36:02;4.90;;;1.23;;
20711;SDS011;10517;50.742;4.224;2022-10-16T13:38:30;1.40;;;0.85;;
20711;SDS011;10517;50.742;4.224;2022-10-16T13:41:02;1.10;;;1.00;;
20711;SDS011;10517;50.742;4.224;2022-10-16T13:46:04;2.63;;;1.00;;
20711;SDS011;10517;50.742;4.224;2022-10-16T13:48:32;1.30;;;0.70;;
20711;SDS011;10517;50.742;4.224;2022-10-16T13:51:06;3.20;;;0.80;;
20711;SDS011;10517;50.742;4.224;2022-10-16T13:53:42;3.28;;;0.95;;
20711;SDS011;10517;50.742;4.224;2022-10-16T13:56:12;3.03;;;0.90;;
20711;SDS011;10517;50.742;4.224;2022-10-16T13:58:40;2.55;;;0.73;;
20711;SDS011;10517;50.742;4.224;2022-10-16T14:01:14;0.77;;;0.77;;
20711;SDS011;10517;50.742;4.224;2022-10-16T14:03:45;1.20;;;0.82;;
20711;SDS011;10517;50.742;4.224;2022-10-16T14:06:13;0.65;;;0.65;;
20711;SDS011;10517;50.742;4.224;2022-10-16T14:08:42;1.05;;;0.82;;
20711;SDS011;10517;50.742;4.224;2022-10-16T14:11:11;4.82;;;0.80;;
20711;SDS011;10517;50.742;4.224;2022-10-16T14:13:38;1.13;;;0.68;;
20711;SDS011;10517;50.742;4.224;2022-10-16T14:16:09;1.83;;;0.77;;
20711;SDS011;10517;50.742;4.224;2022-10-16T14:18:36;0.60;;;0.60;;
20711;SDS011;10517;50.742;4.224;2022-10-16T14:21:04;2.38;;;0.90;;
20711;SDS011;10517;50.742;4.224;2022-10-16T14:23:34;2.72;;;0.80;;
20711;SDS011;10517;50.742;4.224;2022-10-16T14:28:34;4.40;;;0.80;;
20711;SDS011;10517;50.742;4.224;2022-10-16T14:31:01;1.88;;;0.77;;
20711;SDS011;10517;50.742;4.224;2022-10-16T14:33:40;2.08;;;0.85;;
20711;SDS011;10517;50.742;4.224;2022-10-16T14:36:10;1.73;;;0.70;;
20711;SDS011;10517;50.742;4.224;2022-10-16T14:38:38;3.22;;;0.88;;
20711;SDS011;10517;50.742;4.224;2022-10-16T14:41:05;1.60;;;0.68;;
20711;SDS011;10517;50.742;4.224;2022-10-16T14:43:41;1.85;;;0.75;;
20711;SDS011;10517;50.742;4.224;2022-10-16T14:46:18;2.53;;;1.10;;
20711;SDS011;10517;50.742;4.224;2022-10-16T14:48:46;2.72;;;1.15;;
20711;SDS011;10517;50.742;4.224;2022-10-16T14:51:15;0.90;;;0.63;;
20711;SDS011;10517;50.742;4.224;2022-10-16T14:53:42;1.02;;;1.02;;
20711;SDS011;10517;50.742;4.224;2022-10-16T14:56:08;1.00;;;0.77;;
20711;SDS011;10517;50.742;4.224;2022-10-16T14:58:40;1.20;;;1.10;;
20711;SDS011;10517;50.742;4.224;2022-10-16T15:01:07;1.73;;;0.82;;
20711;SDS011;10517;50.742;4.224;2022-10-16T15:03:35;0.70;;;0.70;;
20711;SDS011;10517;50.742;4.224;2022-10-16T15:06:01;0.82;;;0.82;;
20711;SDS011;10517;50.742;4.224;2022-10-16T15:08:27;2.83;;;0.80;;
20711;SDS011;10517;50.742;4.224;2022-10-16T15:10:52;2.97;;;0.93;;
20711;SDS011;10517;50.742;4.224;2022-10-16T15:13:18;0.82;;;0.70;;
20711;SDS011;10517;50.742;4.224;2022-10-16T15:15:44;0.88;;;0.82;;
20711;SDS011;10517;50.742;4.224;2022-10-16T15:18:11;3.17;;;1.33;;
20711;SDS011;10517;50.742;4.224;2022-10-16T15:20:39;1.98;;;0.80;;
20711;SDS011;10517;50.742;4.224;2022-10-16T15:23:08;0.93;;;0.82;;
20711;SDS011;10517;50.742;4.224;2022-10-16T15:25:49;1.13;;;0.80;;
20711;SDS011;10517;50.742;4.224;2022-10-16T15:28:16;2.72;;;0.95;;
20711;SDS011;10517;50.742;4.224;2022-10-16T15:30:43;1.55;;;1.20;;
20711;SDS011;10517;50.742;4.224;2022-10-16T15:33:13;0.60;;;0.60;;
20711;SDS011;10517;50.742;4.224;2022-10-16T15:35:41;0.73;;;0.73;;
20711;SDS011;10517;50.742;4.224;2022-10-16T15:38:09;1.95;;;0.88;;
20711;SDS011;10517;50.742;4.224;2022-10-16T15:40:37;3.55;;;1.15;;
20711;SDS011;10517;50.742;4.224;2022-10-16T15:43:03;4.55;;;1.20;;
20711;SDS011;10517;50.742;4.224;2022-10-16T15:45:28;6.10;;;2.40;;
20711;SDS011;10517;50.742;4.224;2022-10-16T15:47:54;5.65;;;1.58;;
20711;SDS011;10517;50.742;4.224;2022-10-16T15:50:19;2.10;;;1.25;;
20711;SDS011;10517;50.742;4.224;2022-10-16T15:52:45;5.85;;;1.00;;
20711;SDS011;10517;50.742;4.224;2022-10-16T15:55:12;2.35;;;1.42;;
20711;SDS011;10517;50.742;4.224;2022-10-16T15:57:38;3.80;;;1.58;;
20711;SDS011;10517;50.742;4.224;2022-10-16T16:00:08;3.92;;;1.67;;
20711;SDS011;10517;50.742;4.224;2022-10-16T16:02:36;2.58;;;1.15;;
20711;SDS011;10517;50.742;4.224;2022-10-16T16:05:02;1.85;;;0.80;;
20711;SDS011;10517;50.742;4.224;2022-10-16T16:07:29;1.33;;;1.00;;
20711;SDS011;10517;50.742;4.224;2022-10-16T16:09:58;1.77;;;0.80;;
20711;SDS011;10517;50.742;4.224;2022-10-16T16:12:23;2.03;;;0.80;;
20711;SDS011;10517;50.742;4.224;2022-10-16T16:14:49;1.45;;;0.70;;
20711;SDS011;10517;50.742;4.224;2022-10-16T16:17:14;1.27;;;0.82;;
20711;SDS011;10517;50.742;4.224;2022-10-16T16:19:40;2.28;;;1.15;;
20711;SDS011;10517;50.742;4.224;2022-10-16T16:22:06;1.50;;;0.90;;
20711;SDS011;10517;50.742;4.224;2022-10-16T16:24:31;1.30;;;0.68;;
20711;SDS011;10517;50.742;4.224;2022-10-16T16:26:57;1.45;;;1.02;;
20711;SDS011;10517;50.742;4.224;2022-10-16T16:29:22;2.22;;;2.03;;
20711;SDS011;10517;50.742;4.224;2022-10-16T16:31:48;3.70;;;1.73;;
20711;SDS011;10517;50.742;4.224;2022-10-16T16:34:14;1.10;;;1.00;;
20711;SDS011;10517;50.742;4.224;2022-10-16T16:36:39;3.75;;;1.73;;
20711;SDS011;10517;50.742;4.224;2022-10-16T16:39:05;3.15;;;1.45;;
20711;SDS011;10517;50.742;4.224;2022-10-16T16:41:32;2.40;;;1.23;;
20711;SDS011;10517;50.742;4.224;2022-10-16T16:44:02;3.35;;;1.38;;
20711;SDS011;10517;50.742;4.224;2022-10-16T16:46:30;6.50;;;1.58;;
20711;SDS011;10517;50.742;4.224;2022-10-16T16:48:57;3.75;;;1.58;;